Schneifelwetter: Wetterstation Hallschlag, 537 m . NN
Wetterdaten: Sonntag, 28.02.2010
Datum Zeit Temp. A. Feuchte A. Luftdruck Regen Wind Richtung Richtung Sonnenschein Helligkeit T Regen Taupunkt Windchill
28.02.2010 00:09 4,0 C 85 % 991 hPa 0,3 l/m 13,7 km/h (3 Bft) S-SO22.5 160 0 min 0 lux 15,00 min 1,7 C -1,4 C
28.02.2010 00:24 3,9 C 87 % 991 hPa 0,0 l/m 15,8 km/h (3 Bft) S-SO45 155 0 min 0 lux 0,00 min 1,9 C -2,7 C
28.02.2010 00:39 3,7 C 89 % 991 hPa 0,3 l/m 19,8 km/h (3 Bft) S-SO45 150 0 min 0 lux 15,00 min 2,1 C -4,8 C
28.02.2010 00:54 3,5 C 90 % 990 hPa 0,0 l/m 24,0 km/h (4 Bft) S-SO22.5 155 0 min 0 lux 0,00 min 2,0 C -6,6 C
28.02.2010 01:09 3,4 C 91 % 990 hPa 0,3 l/m 21,2 km/h (4 Bft) S-SO45 155 0 min 0 lux 15,00 min 2,1 C -5,7 C
28.02.2010 01:24 3,3 C 91 % 989 hPa 0,0 l/m 24,8 km/h (4 Bft) SO22.5 140 0 min 0 lux 0,00 min 2,0 C -7,2 C
28.02.2010 01:39 3,2 C 92 % 989 hPa 0,0 l/m 20,8 km/h (4 Bft) SO45 145 0 min 0 lux 0,00 min 2,0 C -5,8 C
28.02.2010 01:54 3,1 C 93 % 989 hPa 0,0 l/m 25,1 km/h (4 Bft) SO22.5 140 0 min 0 lux 0,00 min 2,1 C -7,6 C
28.02.2010 02:09 3,1 C 93 % 988 hPa 0,3 l/m 19,5 km/h (3 Bft) SO22.5 145 0 min 0 lux 15,00 min 2,1 C -5,4 C
28.02.2010 02:24 3,1 C 94 % 988 hPa 0,0 l/m 25,8 km/h (4 Bft) S-SO22.5 150 0 min 0 lux 0,00 min 2,2 C -7,8 C
28.02.2010 02:39 3,1 C 94 % 987 hPa 0,3 l/m 22,7 km/h (4 Bft) SO22.5 140 0 min 0 lux 15,00 min 2,2 C -6,7 C
28.02.2010 02:54 3,0 C 95 % 987 hPa 0,0 l/m 21,1 km/h (4 Bft) SO22.5 145 0 min 0 lux 0,00 min 2,3 C -6,2 C
28.02.2010 03:09 3,1 C 95 % 987 hPa 0,0 l/m 23,4 km/h (4 Bft) S-SO45 150 0 min 0 lux 0,00 min 2,4 C -7,0 C
28.02.2010 03:24 3,2 C 95 % 987 hPa 0,0 l/m 30,8 km/h (5 Bft) S-SO22.5 150 0 min 0 lux 0,00 min 2,5 C -9,1 C
28.02.2010 03:39 3,3 C 95 % 986 hPa 0,0 l/m 27,3 km/h (4 Bft) S-SO45 150 0 min 0 lux 0,00 min 2,6 C -8,0 C
28.02.2010 03:54 3,3 C 96 % 986 hPa 0,0 l/m 25,5 km/h (4 Bft) S45 170 0 min 0 lux 0,00 min 2,7 C -7,4 C
28.02.2010 04:09 3,4 C 96 % 986 hPa 0,0 l/m 23,1 km/h (4 Bft) S-SO22.5 150 0 min 0 lux 0,00 min 2,8 C -6,4 C
28.02.2010 04:24 3,4 C 96 % 985 hPa 0,0 l/m 19,5 km/h (3 Bft) S-SO22.5 160 0 min 0 lux 0,00 min 2,8 C -5,0 C
28.02.2010 04:39 3,5 C 96 % 985 hPa 0,0 l/m 15,3 km/h (3 Bft) S-SO22.5 155 0 min 0 lux 0,00 min 2,9 C -2,9 C
28.02.2010 04:54 3,7 C 97 % 985 hPa 0,0 l/m 21,4 km/h (4 Bft) S-SO45 165 0 min 0 lux 0,00 min 3,3 C -5,4 C
28.02.2010 05:09 3,9 C 97 % 984 hPa 0,3 l/m 17,8 km/h (3 Bft) S22.5 170 0 min 0 lux 15,00 min 3,5 C -3,6 C
28.02.2010 05:24 4,2 C 98 % 984 hPa 0,3 l/m 19,6 km/h (3 Bft) S-SO22.5 160 0 min 0 lux 15,00 min 3,9 C -4,0 C
28.02.2010 05:39 4,3 C 98 % 984 hPa 0,6 l/m 19,2 km/h (3 Bft) S45 170 0 min 0 lux 15,00 min 4,0 C -3,7 C
28.02.2010 05:54 4,5 C 98 % 984 hPa 0,6 l/m 27,0 km/h (4 Bft) S22.5 175 0 min 0 lux 15,00 min 4,2 C -6,2 C
28.02.2010 06:09 4,6 C 98 % 983 hPa 0,3 l/m 23,7 km/h (4 Bft) S67.5 170 0 min 0 lux 15,00 min 4,3 C -5,1 C
28.02.2010 06:24 4,7 C 98 % 983 hPa 0,3 l/m 27,5 km/h (4 Bft) S22.5 180 0 min 0 lux 15,00 min 4,4 C -6,1 C
28.02.2010 06:40 4,8 C 99 % 983 hPa 0,0 l/m 34,1 km/h (5 Bft) S45 180 0 min 0 lux 0,00 min 4,7 C -7,6 C
28.02.2010 06:55 5,2 C 99 % 983 hPa 0,3 l/m 34,5 km/h (5 Bft) S22.5 170 0 min 0 lux 15,00 min 5,1 C -7,2 C
28.02.2010 07:10 5,4 C 99 % 983 hPa 0,3 l/m 30,3 km/h (5 Bft) S22.5 185 0 min 62 lux 15,00 min 5,3 C -5,9 C
28.02.2010 07:25 5,6 C 99 % 982 hPa 0,0 l/m 37,6 km/h (5 Bft) S45 175 0 min 237 lux 0,00 min 5,5 C -7,2 C
28.02.2010 07:40 5,7 C 99 % 982 hPa 0,0 l/m 31,6 km/h (5 Bft) S45 180 0 min 1,55 klux 0,00 min 5,6 C -5,8 C
28.02.2010 07:55 5,9 C 99 % 982 hPa 0,0 l/m 31,1 km/h (5 Bft) S45 170 0 min 2,68 klux 0,00 min 5,8 C -5,4 C
28.02.2010 08:10 6,0 C 99 % 981 hPa 0,0 l/m 38,8 km/h (5 Bft) S45 175 0 min 4,01 klux 0,00 min 5,9 C -6,8 C
28.02.2010 08:25 6,2 C 99 % 981 hPa 0,0 l/m 31,0 km/h (5 Bft) S45 175 0 min 7,97 klux 0,00 min 6,1 C -4,9 C
28.02.2010 08:40 6,6 C 98 % 981 hPa 0,0 l/m 39,1 km/h (6 Bft) S45 180 0 min 18,1 klux 0,00 min 6,3 C -6,0 C
28.02.2010 08:55 6,7 C 97 % 981 hPa 0,0 l/m 34,6 km/h (5 Bft) S45 180 0 min 4,47 klux 0,00 min 6,3 C -5,0 C
28.02.2010 09:10 6,8 C 96 % 981 hPa 0,0 l/m 36,4 km/h (5 Bft) S45 180 0 min 3,77 klux 0,00 min 6,2 C -5,2 C
28.02.2010 09:30 7,0 C 96 % 981 hPa 0,0 l/m 41,8 km/h (6 Bft) S45 185 0 min 4,25 klux 0,00 min 6,4 C -5,8 C
28.02.2010 09:45 7,2 C 96 % 980 hPa 0,0 l/m 30,8 km/h (5 Bft) S-SW67.5 195 0 min 13,7 klux 0,00 min 6,6 C -3,5 C
28.02.2010 10:00 7,4 C 96 % 980 hPa 0,0 l/m 47,6 km/h (6 Bft) S-SW45 200 0 min 14,2 klux 0,00 min 6,8 C -6,0 C
28.02.2010 10:16 8,2 C 89 % 980 hPa 0,0 l/m 54,6 km/h (7 Bft) S-SW22.5 200 16 min 56,7 klux 0,00 min 6,5 C -5,5 C
28.02.2010 10:31 8,2 C 83 % 980 hPa 0,0 l/m 60,6 km/h (7 Bft) SW45 220 15 min 53,5 klux 0,00 min 5,5 C -6,0 C
28.02.2010 10:46 8,2 C 84 % 980 hPa 0,0 l/m 55,1 km/h (7 Bft) SW45 215 15 min 38,5 klux 0,00 min 5,7 C -5,6 C
28.02.2010 11:00 7,8 C 81 % 980 hPa 0,0 l/m 65,6 km/h (8 Bft) SW45 215 14 min 38,9 klux 0,00 min 4,7 C -6,9 C
28.02.2010 11:15 7,1 C 86 % 980 hPa 0,0 l/m 66,2 km/h (8 Bft) SW22.5 235 0 min 14,4 klux 0,00 min 4,9 C -8,1 C
28.02.2010 11:30 6,7 C 88 % 981 hPa 0,3 l/m 61,6 km/h (7 Bft) SW45 225 0 min 16,4 klux 15,00 min 4,9 C -8,4 C
28.02.2010 11:45 6,4 C 89 % 980 hPa 0,0 l/m 69,0 km/h (8 Bft) S-SW45 210 0 min 16,5 klux 0,00 min 4,7 C -9,3 C
28.02.2010 12:01 6,0 C 91 % 981 hPa 0,0 l/m 59,0 km/h (7 Bft) SW67.5 215 0 min 12,5 klux 0,00 min 4,6 C -9,3 C
28.02.2010 12:16 5,8 C 90 % 981 hPa 0,3 l/m 72,9 km/h (8 Bft) SW45 230 0 min 16,3 klux 15,00 min 4,3 C -10,5 C
28.02.2010 12:31 5,5 C 91 % 980 hPa 0,0 l/m 57,7 km/h (7 Bft) S-SW67.5 210 0 min 9,3 klux 0,00 min 4,2 C -10,0 C
28.02.2010 12:45 5,2 C 90 % 980 hPa 0,3 l/m 70,1 km/h (8 Bft) S-SW67.5 205 0 min 11,6 klux 14,00 min 3,7 C -11,3 C
28.02.2010 13:00 4,8 C 92 % 981 hPa 0,0 l/m 76,5 km/h (9 Bft) SW45 215 0 min 11,4 klux 0,00 min 3,6 C -12,2 C
28.02.2010 13:15 4,5 C 91 % 981 hPa 0,0 l/m 73,4 km/h (8 Bft) SW45 215 0 min 10,7 klux 0,00 min 3,2 C -12,6 C
28.02.2010 13:30 4,2 C 91 % 981 hPa 0,0 l/m 74,2 km/h (8 Bft) SW45 215 0 min 11,0 klux 0,00 min 2,9 C -13,1 C
28.02.2010 13:46 3,9 C 92 % 982 hPa 0,3 l/m 77,0 km/h (9 Bft) SW67.5 225 0 min 7,36 klux 16,00 min 2,7 C -13,6 C
28.02.2010 14:01 3,6 C 93 % 982 hPa 0,0 l/m 72,5 km/h (8 Bft) SW67.5 215 0 min 5,08 klux 0,00 min 2,6 C -14,0 C
28.02.2010 14:16 3,3 C 94 % 983 hPa 0,3 l/m 70,1 km/h (8 Bft) SW45 235 0 min 4,77 klux 15,00 min 2,4 C -14,3 C
28.02.2010 14:30 3,4 C 94 % 983 hPa 0,0 l/m 67,6 km/h (8 Bft) SW67.5 230 0 min 6,65 klux 0,00 min 2,5 C -14,0 C
28.02.2010 14:45 3,3 C 93 % 983 hPa 0,0 l/m 78,2 km/h (9 Bft) SW45 235 0 min 6,55 klux 0,00 min 2,3 C -14,6 C
28.02.2010 15:00 3,2 C 94 % 983 hPa 0,0 l/m 62,4 km/h (8 Bft) SW67.5 235 0 min 3,07 klux 0,00 min 2,3 C -14,0 C
28.02.2010 15:15 3,2 C 93 % 984 hPa 0,0 l/m 73,7 km/h (8 Bft) W-SW45 240 0 min 2,86 klux 0,00 min 2,2 C -14,6 C
28.02.2010 15:31 3,3 C 93 % 985 hPa 0,0 l/m 77,8 km/h (9 Bft) W-SW67.5 245 0 min 2,77 klux 0,00 min 2,3 C -14,6 C
28.02.2010 15:46 3,2 C 94 % 985 hPa 0,3 l/m 73,4 km/h (8 Bft) W-SW67.5 240 0 min 2,63 klux 15,00 min 2,3 C -14,6 C
28.02.2010 16:01 3,1 C 95 % 985 hPa 0,3 l/m 65,7 km/h (8 Bft) W-SW67.5 255 0 min 4,38 klux 15,00 min 2,4 C -14,4 C
28.02.2010 16:15 3,1 C 94 % 986 hPa 0,0 l/m 78,4 km/h (9 Bft) W45 260 0 min 3,74 klux 0,00 min 2,2 C -15,0 C
28.02.2010 16:30 2,9 C 94 % 986 hPa 0,3 l/m 93,9 km/h (10 Bft) W-SW45 245 0 min 5,42 klux 15,00 min 2,0 C -15,4 C
28.02.2010 16:45 2,9 C 94 % 987 hPa 0,0 l/m 72,5 km/h (8 Bft) W-SW45 255 0 min 6,92 klux 0,00 min 2,0 C -15,1 C
28.02.2010 17:01 2,9 C 94 % 987 hPa 0,0 l/m 71,5 km/h (8 Bft) W-SW45 255 0 min 4,33 klux 0,00 min 2,0 C -15,0 C
28.02.2010 17:16 2,7 C 94 % 987 hPa 0,0 l/m 77,6 km/h (9 Bft) W-SW22.5 250 0 min 2,89 klux 0,00 min 1,8 C -15,6 C
28.02.2010 17:31 2,6 C 95 % 988 hPa 0,0 l/m 67,8 km/h (8 Bft) W-SW45 250 0 min 1,82 klux 0,00 min 1,9 C -15,3 C
28.02.2010 17:45 2,4 C 96 % 988 hPa 0,3 l/m 65,8 km/h (8 Bft) W22.5 260 0 min 773 lux 14,00 min 1,8 C -15,5 C
28.02.2010 18:00 2,3 C 97 % 989 hPa 0,0 l/m 67,8 km/h (8 Bft) W-SW45 240 0 min 552 lux 0,00 min 1,9 C -15,8 C
28.02.2010 18:15 2,5 C 97 % 990 hPa 0,3 l/m 63,8 km/h (8 Bft) W-SW45 250 0 min 327 lux 15,00 min 2,1 C -15,2 C
28.02.2010 18:30 2,4 C 97 % 990 hPa 0,0 l/m 55,6 km/h (7 Bft) W-SW45 255 0 min 130 lux 0,00 min 2,0 C -14,6 C
28.02.2010 18:46 2,4 C 97 % 991 hPa 0,0 l/m 61,1 km/h (7 Bft) W-SW22.5 255 0 min 18 lux 0,00 min 2,0 C -15,2 C
28.02.2010 19:01 2,4 C 97 % 991 hPa 0,0 l/m 64,2 km/h (8 Bft) W-SW22.5 250 0 min 0 lux 0,00 min 2,0 C -15,4 C
28.02.2010 19:16 2,3 C 97 % 992 hPa 0,0 l/m 58,0 km/h (7 Bft) W67.5 260 0 min 0 lux 0,00 min 1,9 C -15,0 C
28.02.2010 19:30 2,3 C 97 % 992 hPa 0,0 l/m 67,4 km/h (8 Bft) W67.5 260 0 min 0 lux 0,00 min 1,9 C -15,8 C
28.02.2010 19:46 2,3 C 97 % 993 hPa 0,0 l/m 60,9 km/h (7 Bft) W-SW45 255 0 min 0 lux 0,00 min 1,9 C -15,3 C
28.02.2010 20:01 2,3 C 97 % 993 hPa 0,0 l/m 56,8 km/h (7 Bft) W-SW45 250 0 min 0 lux 0,00 min 1,9 C -14,9 C
28.02.2010 20:16 2,3 C 97 % 994 hPa 0,3 l/m 46,8 km/h (6 Bft) W45 260 0 min 0 lux 15,00 min 1,9 C -13,7 C
28.02.2010 20:31 2,2 C 97 % 994 hPa 0,0 l/m 48,3 km/h (6 Bft) W-SW45 245 0 min 0 lux 0,00 min 1,8 C -14,1 C
28.02.2010 20:46 2,1 C 97 % 995 hPa 0,0 l/m 54,1 km/h (7 Bft) W22.5 260 0 min 0 lux 0,00 min 1,7 C -14,9 C
28.02.2010 21:00 2,1 C 98 % 995 hPa 0,0 l/m 46,9 km/h (6 Bft) W-SW22.5 255 0 min 0 lux 0,00 min 1,8 C -14,0 C
28.02.2010 21:15 2,1 C 98 % 995 hPa 0,0 l/m 44,2 km/h (6 Bft) W-SW22.5 255 0 min 0 lux 0,00 min 1,8 C -13,6 C
28.02.2010 21:30 2,2 C 98 % 996 hPa 0,0 l/m 47,7 km/h (6 Bft) W22.5 260 0 min 0 lux 0,00 min 1,9 C -14,0 C
28.02.2010 21:45 2,3 C 98 % 996 hPa 0,3 l/m 40,4 km/h (6 Bft) W-SW22.5 255 0 min 0 lux 15,00 min 2,0 C -12,6 C
28.02.2010 22:00 2,2 C 98 % 996 hPa 0,3 l/m 46,6 km/h (6 Bft) W22.5 260 0 min 0 lux 15,00 min 1,9 C -13,8 C
28.02.2010 22:15 2,0 C 98 % 996 hPa 0,3 l/m 37,5 km/h (5 Bft) W-SW45 250 0 min 0 lux 15,00 min 1,7 C -12,5 C
28.02.2010 22:30 1,9 C 98 % 996 hPa 0,0 l/m 37,6 km/h (5 Bft) W-SW22.5 255 0 min 0 lux 0,00 min 1,6 C -12,6 C
28.02.2010 22:45 1,8 C 97 % 997 hPa 0,0 l/m 37,2 km/h (5 Bft) W45 270 0 min 0 lux 0,00 min 1,4 C -12,7 C
28.02.2010 23:00 1,4 C 97 % 997 hPa 0,3 l/m 30,1 km/h (5 Bft) W45 260 0 min 0 lux 15,00 min 1,0 C -11,5 C
28.02.2010 23:16 1,3 C 97 % 997 hPa 0,0 l/m 35,3 km/h (5 Bft) W45 260 0 min 0 lux 0,00 min 0,9 C -13,0 C
28.02.2010 23:31 1,2 C 97 % 997 hPa 0,0 l/m 36,9 km/h (5 Bft) W-SW22.5 250 0 min 0 lux 0,00 min 0,8 C -13,5 C
28.02.2010 23:46 1,1 C 97 % 998 hPa 0,0 l/m 35,4 km/h (5 Bft) W22.5 265 0 min 0 lux 0,00 min 0,7 C -13,3 C
_ Min-Zeit 23:46 11:00 09:45 - 00:09 - - - - - 23:46 18:00
Minimum _ 1,1 C 81 % 980 hPa - 13,7 km/h (3 Bft) - - - - - 0,7 C -15,8 C
_ Max-Zeit 10:16 06:40 23:46 05:39 16:30 - - 10:16 10:16 13:46 10:00 00:09
Maximum _ 8,2 C 99 % 998 hPa 0,6 l/m 93,9 km/h
W-SW (10 Bft)
- - 16 min 56,7 klux 16,00 min 6,8 C -1,4 C
Durchschnitt _ 3,9 C 95 % 987 hPa #9,0 l/m 46,5 km/h (6 Bft) W-SW - #1:00 h 4,90 klux #6:59 h 3,1 C -10,0 C